createdAt,value
2018-05-27T00:00:22.848Z,59.63
2018-05-27T00:01:25.368Z,59.64
2018-05-27T00:02:27.888Z,59.66
2018-05-27T00:03:30.375Z,59.68
2018-05-27T00:04:32.860Z,59.72
2018-05-27T00:05:35.372Z,59.74
2018-05-27T00:06:37.939Z,59.75
2018-05-27T00:07:40.431Z,59.84
2018-05-27T00:08:42.945Z,59.89
2018-05-27T00:09:45.436Z,59.99
2018-05-27T00:10:47.928Z,60.08
2018-05-27T00:11:50.440Z,60.09
2018-05-27T00:12:52.945Z,60.13
2018-05-27T00:13:55.506Z,60.17
2018-05-27T00:14:57.965Z,60.19
2018-05-27T00:16:00.458Z,60.19
2018-05-27T00:17:02.963Z,60.25
2018-05-27T00:18:05.438Z,60.28
2018-05-27T00:19:07.972Z,60.34
2018-05-27T00:20:10.471Z,60.33
2018-05-27T00:21:12.951Z,60.33
2018-05-27T00:22:15.468Z,60.31
2018-05-27T00:23:17.976Z,60.33
2018-05-27T00:24:20.469Z,60.35
2018-05-27T00:25:22.987Z,60.39
2018-05-27T00:26:25.488Z,60.41
2018-05-27T00:27:28.001Z,60.45
2018-05-27T00:28:30.494Z,60.46
2018-05-27T00:29:32.977Z,60.52
2018-05-27T00:30:35.475Z,60.55
2018-05-27T00:31:38.018Z,60.55
2018-05-27T00:32:40.529Z,60.66
2018-05-27T00:33:43.027Z,60.73
2018-05-27T00:34:45.506Z,60.77
2018-05-27T00:35:48.001Z,60.81
2018-05-27T00:36:50.470Z,60.81
2018-05-27T00:37:52.966Z,60.83
2018-05-27T00:38:55.462Z,60.85
2018-05-27T00:39:57.959Z,60.85
2018-05-27T00:41:00.430Z,60.87
2018-05-27T00:42:03.000Z,60.87
2018-05-27T00:43:05.490Z,60.93
2018-05-27T00:44:07.969Z,60.92
2018-05-27T00:45:10.444Z,60.97
2018-05-27T00:46:12.942Z,60.97
2018-05-27T00:47:15.427Z,60.98
2018-05-27T00:48:17.926Z,60.98
2018-05-27T00:49:20.421Z,61.00
2018-05-27T00:50:22.935Z,61.05
2018-05-27T00:51:25.429Z,61.05
2018-05-27T00:52:27.975Z,61.06
2018-05-27T00:53:42.358Z,61.07
2018-05-27T00:54:44.852Z,61.09
2018-05-27T00:55:47.344Z,61.13
2018-05-27T00:56:49.855Z,61.18
2018-05-27T00:57:52.348Z,61.27
2018-05-27T00:58:54.865Z,61.35
2018-05-27T00:59:57.441Z,61.40
2018-05-27T01:00:59.934Z,61.36
2018-05-27T01:03:04.288Z,61.30
2018-05-27T01:04:06.798Z,61.29
2018-05-27T01:05:09.289Z,61.27
2018-05-27T01:06:11.777Z,61.21
2018-05-27T01:07:14.288Z,61.18
2018-05-27T01:08:16.800Z,61.18
2018-05-27T01:09:19.309Z,61.16
2018-05-27T01:10:21.805Z,61.13
2018-05-27T01:11:24.306Z,61.11
2018-05-27T01:12:26.792Z,61.13
2018-05-27T01:13:29.284Z,61.12
2018-05-27T01:14:31.801Z,61.13
2018-05-27T01:15:34.288Z,61.12
2018-05-27T01:16:36.766Z,61.10
2018-05-27T01:17:39.311Z,61.07
2018-05-27T01:18:41.801Z,61.10
2018-05-27T01:19:44.328Z,61.14
2018-05-27T01:20:46.828Z,61.17
2018-05-27T01:21:49.323Z,61.15
2018-05-27T01:22:51.835Z,61.14
2018-05-27T01:23:54.329Z,61.15
2018-05-27T01:24:56.827Z,61.21
2018-05-27T01:25:59.313Z,61.28
2018-05-27T01:27:01.805Z,61.27
2018-05-27T01:28:04.311Z,61.30
2018-05-27T01:29:06.790Z,61.40
2018-05-27T01:30:09.297Z,61.46
2018-05-27T01:31:11.774Z,61.47
2018-05-27T01:32:14.274Z,61.50
2018-05-27T01:33:16.779Z,61.60
2018-05-27T01:34:19.275Z,61.61
2018-05-27T01:35:21.803Z,61.60
2018-05-27T01:36:24.300Z,61.61
2018-05-27T01:37:26.808Z,61.66
2018-05-27T01:38:29.329Z,61.71
2018-05-27T01:39:31.805Z,61.77
2018-05-27T01:40:34.326Z,61.78
2018-05-27T01:41:36.817Z,61.83
2018-05-27T01:42:39.296Z,61.88
2018-05-27T01:43:41.799Z,61.88
2018-05-27T01:44:44.291Z,61.88
2018-05-27T01:45:46.782Z,61.89
2018-05-27T01:46:49.263Z,61.90
2018-05-27T01:47:51.786Z,61.91
2018-05-27T01:48:54.281Z,61.95
2018-05-27T01:49:56.790Z,61.91
2018-05-27T01:50:59.321Z,61.93
2018-05-27T01:52:01.807Z,61.96
2018-05-27T01:53:04.324Z,61.95
2018-05-27T01:54:06.832Z,62.00
2018-05-27T01:55:09.325Z,62.01
2018-05-27T01:56:11.844Z,61.99
2018-05-27T01:57:14.336Z,61.99
2018-05-27T01:58:16.836Z,62.00
2018-05-27T01:59:19.333Z,62.00
2018-05-27T02:00:21.832Z,62.02
2018-05-27T02:01:24.322Z,62.02
2018-05-27T02:02:26.808Z,62.05
2018-05-27T02:03:29.305Z,62.12
2018-05-27T02:04:31.807Z,62.10
2018-05-27T02:05:34.316Z,62.06
2018-05-27T02:06:36.838Z,62.00
2018-05-27T02:07:39.341Z,62.03
2018-05-27T02:08:41.810Z,62.00
2018-05-27T02:09:44.355Z,62.07
2018-05-27T02:10:46.826Z,62.04
2018-05-27T02:11:49.318Z,62.02
2018-05-27T02:12:51.824Z,61.97
2018-05-27T02:13:54.301Z,61.94
2018-05-27T02:14:56.784Z,61.88
2018-05-27T02:15:59.273Z,61.88
2018-05-27T02:17:01.771Z,61.87
2018-05-27T02:18:04.261Z,61.85
2018-05-27T02:19:06.761Z,61.86
2018-05-27T02:20:09.232Z,61.86
2018-05-27T02:21:11.715Z,61.87
2018-05-27T02:22:14.217Z,61.90
2018-05-27T02:23:16.720Z,61.95
2018-05-27T02:24:19.246Z,61.97
2018-05-27T02:25:21.717Z,61.98
2018-05-27T02:26:24.218Z,62.05
2018-05-27T02:27:26.749Z,62.08
2018-05-27T02:28:29.256Z,62.09
2018-05-27T02:29:31.734Z,61.98
2018-05-27T02:30:34.227Z,61.52
2018-05-27T02:31:36.719Z,61.62
2018-05-27T02:32:39.229Z,61.20
2018-05-27T02:33:41.730Z,61.14
2018-05-27T02:34:44.206Z,61.17
2018-05-27T02:35:46.704Z,61.23
2018-05-27T02:36:49.201Z,61.32
2018-05-27T02:37:51.725Z,61.37
2018-05-27T02:38:54.216Z,61.43
2018-05-27T02:39:56.726Z,61.42
2018-05-27T02:40:59.208Z,61.44
2018-05-27T02:42:01.697Z,61.46
2018-05-27T02:43:04.197Z,61.47
2018-05-27T02:44:06.682Z,61.49
2018-05-27T02:45:09.166Z,61.53
2018-05-27T02:46:11.669Z,61.56
2018-05-27T02:47:14.173Z,61.56
2018-05-27T02:48:16.702Z,61.55
2018-05-27T02:49:19.209Z,61.57
2018-05-27T02:50:21.682Z,61.58
2018-05-27T02:51:24.191Z,61.61
2018-05-27T02:52:26.703Z,61.64
2018-05-27T02:53:29.203Z,61.68
2018-05-27T02:54:31.700Z,61.73
2018-05-27T02:55:34.183Z,61.76
2018-05-27T02:56:36.689Z,61.77
2018-05-27T02:57:39.198Z,61.82
2018-05-27T02:58:41.708Z,61.83
2018-05-27T02:59:44.200Z,61.84
2018-05-27T03:00:46.688Z,61.87
2018-05-27T03:01:49.191Z,61.87
2018-05-27T03:02:51.688Z,61.90
2018-05-27T03:03:54.193Z,61.90
2018-05-27T03:04:56.695Z,61.90
2018-05-27T03:05:59.181Z,61.90
2018-05-27T03:07:01.662Z,61.88
2018-05-27T03:08:04.185Z,61.93
2018-05-27T03:09:06.696Z,62.05
2018-05-27T03:10:09.258Z,62.06
2018-05-27T03:11:11.751Z,62.07
2018-05-27T03:12:14.231Z,62.02
2018-05-27T03:13:16.735Z,62.04
2018-05-27T03:14:19.249Z,62.03
2018-05-27T03:15:21.728Z,62.07
2018-05-27T03:16:24.198Z,62.01
2018-05-27T03:17:26.692Z,61.99
2018-05-27T03:18:29.177Z,61.98
2018-05-27T03:19:31.671Z,61.95
2018-05-27T03:20:34.191Z,61.95
2018-05-27T03:21:36.663Z,61.97
2018-05-27T03:22:39.164Z,61.96
2018-05-27T03:23:41.923Z,61.98
2018-05-27T03:24:44.475Z,61.98
2018-05-27T03:25:46.960Z,62.02
2018-05-27T03:26:49.453Z,62.05
2018-05-27T03:27:51.927Z,62.05
2018-05-27T03:28:54.421Z,62.05
2018-05-27T03:29:56.951Z,62.09
2018-05-27T03:30:59.453Z,62.14
2018-05-27T03:32:01.934Z,62.14
2018-05-27T03:33:04.455Z,62.15
2018-05-27T03:34:06.957Z,62.19
2018-05-27T03:35:09.480Z,62.15
2018-05-27T03:36:11.987Z,62.15
2018-05-27T03:37:14.462Z,62.14
2018-05-27T03:38:16.944Z,62.13
2018-05-27T03:39:19.453Z,62.14
2018-05-27T03:40:21.935Z,62.17
2018-05-27T03:41:24.444Z,62.18
2018-05-27T03:42:26.951Z,62.17
2018-05-27T03:43:29.455Z,62.20
2018-05-27T03:44:31.962Z,62.28
2018-05-27T03:45:34.482Z,62.29
2018-05-27T03:46:36.987Z,62.35
2018-05-27T03:47:39.477Z,62.32
2018-05-27T03:48:41.990Z,62.32
2018-05-27T03:49:44.570Z,62.30
2018-05-27T03:50:47.103Z,62.34
2018-05-27T03:51:49.608Z,62.33
2018-05-27T03:52:52.090Z,62.37
2018-05-27T03:53:54.579Z,62.41
2018-05-27T03:54:57.084Z,62.58
2018-05-27T03:55:59.599Z,62.57
2018-05-27T03:57:02.078Z,62.57
2018-05-27T03:58:04.686Z,62.65
2018-05-27T03:59:07.167Z,62.65
2018-05-27T04:00:10.454Z,62.61
2018-05-27T04:01:12.962Z,62.62
2018-05-27T04:02:15.449Z,62.63
2018-05-27T04:03:17.953Z,62.68
2018-05-27T04:04:32.413Z,62.69
2018-05-27T04:05:46.786Z,62.67
2018-05-27T04:07:00.997Z,62.66
2018-05-27T04:08:15.298Z,62.66
2018-05-27T04:09:17.774Z,62.68
2018-05-27T04:10:20.258Z,62.66
2018-05-27T04:11:22.787Z,62.75
2018-05-27T04:12:25.270Z,62.77
2018-05-27T04:13:27.774Z,62.79
2018-05-27T04:14:30.269Z,62.80
2018-05-27T04:15:32.746Z,62.80
2018-05-27T04:16:35.240Z,62.79
2018-05-27T04:17:37.712Z,62.78
2018-05-27T04:18:40.190Z,62.80
2018-05-27T04:19:42.677Z,62.81
2018-05-27T04:20:45.178Z,62.91
2018-05-27T04:21:47.689Z,62.89
2018-05-27T04:22:50.162Z,62.93
2018-05-27T04:23:52.664Z,62.89
2018-05-27T04:24:55.143Z,62.89
2018-05-27T04:25:57.647Z,62.87
2018-05-27T04:27:00.143Z,62.86
2018-05-27T04:28:02.632Z,62.84
2018-05-27T04:29:05.104Z,62.79
2018-05-27T04:30:07.600Z,62.82
2018-05-27T04:31:10.080Z,62.80
2018-05-27T04:32:12.631Z,62.79
2018-05-27T04:33:15.122Z,62.78
2018-05-27T04:34:17.610Z,62.78
2018-05-27T04:35:20.113Z,62.87
2018-05-27T04:36:22.611Z,62.95
2018-05-27T04:37:25.117Z,62.95
2018-05-27T04:38:27.614Z,62.96
2018-05-27T04:39:30.097Z,63.00
2018-05-27T04:40:32.580Z,62.98
2018-05-27T04:41:35.083Z,62.97
2018-05-27T04:42:37.593Z,62.91
2018-05-27T04:43:40.085Z,62.88
2018-05-27T04:44:42.558Z,62.89
2018-05-27T04:45:45.177Z,62.89
2018-05-27T04:46:47.672Z,62.88
2018-05-27T04:47:50.173Z,62.88
2018-05-27T04:48:52.677Z,62.85
2018-05-27T04:49:55.166Z,62.83
2018-05-27T04:50:57.673Z,62.80
2018-05-27T04:52:00.154Z,62.81
2018-05-27T04:53:02.656Z,62.78
2018-05-27T04:54:05.319Z,62.75
2018-05-27T04:55:07.831Z,62.87
2018-05-27T04:56:10.347Z,62.90
2018-05-27T04:57:12.830Z,62.89
2018-05-27T04:58:15.335Z,62.88
2018-05-27T04:59:17.848Z,62.86
2018-05-27T05:00:20.388Z,62.82
2018-05-27T05:01:22.907Z,62.82
2018-05-27T05:02:25.467Z,62.80
2018-05-27T05:03:27.966Z,62.84
2018-05-27T05:04:30.547Z,62.83
2018-05-27T05:05:33.052Z,62.82
2018-05-27T05:06:35.565Z,63.00
2018-05-27T05:07:38.086Z,63.00
2018-05-27T05:08:40.875Z,63.08
2018-05-27T05:09:43.384Z,63.02
2018-05-27T05:10:45.894Z,63.05
2018-05-27T05:11:48.385Z,63.04
2018-05-27T05:12:50.862Z,63.04
2018-05-27T05:13:53.354Z,63.07
2018-05-27T05:14:55.906Z,63.07
2018-05-27T05:15:58.373Z,63.04
2018-05-27T05:17:00.867Z,63.08
2018-05-27T05:18:03.374Z,63.11
2018-05-27T05:19:05.903Z,63.12
2018-05-27T05:20:08.382Z,63.10
2018-05-27T05:21:10.868Z,63.09
2018-05-27T05:22:13.367Z,63.16
2018-05-27T05:23:15.868Z,63.15
2018-05-27T05:24:18.402Z,63.16
2018-05-27T05:25:20.899Z,63.15
2018-05-27T05:26:23.378Z,63.15
2018-05-27T05:27:25.865Z,63.13
2018-05-27T05:28:28.351Z,63.20
2018-05-27T05:29:30.856Z,63.18
2018-05-27T05:30:33.357Z,63.21
2018-05-27T05:31:35.866Z,63.21
2018-05-27T05:32:38.361Z,62.82
2018-05-27T05:33:40.857Z,61.89
2018-05-27T05:34:43.352Z,61.51
2018-05-27T05:35:45.841Z,60.89
2018-05-27T05:36:48.333Z,60.21
2018-05-27T05:37:50.852Z,59.18
2018-05-27T05:38:53.347Z,57.57
2018-05-27T05:39:55.915Z,57.04
2018-05-27T05:40:58.407Z,57.06
2018-05-27T05:42:00.915Z,56.35
2018-05-27T05:43:03.410Z,55.90
2018-05-27T05:44:05.917Z,56.14
2018-05-27T05:45:08.395Z,56.56
2018-05-27T05:46:10.874Z,56.46
2018-05-27T05:47:13.382Z,56.36
2018-05-27T05:48:15.907Z,56.34
2018-05-27T05:49:18.452Z,56.39
2018-05-27T05:50:21.033Z,56.15
2018-05-27T05:51:23.539Z,55.38
2018-05-27T05:52:26.037Z,54.75
2018-05-27T05:53:28.541Z,54.34
2018-05-27T05:54:31.033Z,53.92
2018-05-27T05:55:33.525Z,53.74
2018-05-27T05:56:36.016Z,53.39
2018-05-27T05:57:38.494Z,53.23
2018-05-27T05:58:41.025Z,53.42
2018-05-27T05:59:43.534Z,53.18
2018-05-27T06:00:46.011Z,53.18
2018-05-27T06:01:48.484Z,53.10
2018-05-27T06:02:50.967Z,53.09
2018-05-27T06:03:53.468Z,53.30
2018-05-27T06:04:55.957Z,53.40
2018-05-27T06:05:58.525Z,52.86
2018-05-27T06:07:01.031Z,52.25
2018-05-27T06:08:03.549Z,52.30
2018-05-27T06:09:06.042Z,52.54
2018-05-27T06:10:08.524Z,52.85
2018-05-27T06:11:11.019Z,53.17
2018-05-27T06:12:13.508Z,52.85
2018-05-27T06:13:16.055Z,52.42
2018-05-27T06:14:18.553Z,52.71
2018-05-27T06:15:21.045Z,52.44
2018-05-27T06:16:23.540Z,52.41
2018-05-27T06:17:26.045Z,52.37
2018-05-27T06:18:28.534Z,51.99
2018-05-27T06:19:31.016Z,52.19
2018-05-27T06:20:33.494Z,52.23
2018-05-27T06:21:35.988Z,52.01
2018-05-27T06:22:38.482Z,51.89
2018-05-27T06:23:40.962Z,52.06
2018-05-27T06:24:43.453Z,52.00
2018-05-27T06:25:45.946Z,51.91
2018-05-27T06:26:48.464Z,51.75
2018-05-27T06:27:50.989Z,51.74
2018-05-27T06:28:53.489Z,51.86
2018-05-27T06:29:56.016Z,51.76
2018-05-27T06:30:58.576Z,51.48
2018-05-27T06:32:01.116Z,51.87
2018-05-27T06:33:03.580Z,51.84
2018-05-27T06:34:06.060Z,51.77
2018-05-27T06:35:08.549Z,51.79
2018-05-27T06:36:11.045Z,51.56
2018-05-27T06:37:13.553Z,51.35
2018-05-27T06:38:16.085Z,51.42
2018-05-27T06:39:18.576Z,51.35
2018-05-27T06:40:21.424Z,51.03
2018-05-27T06:41:23.912Z,51.08
2018-05-27T06:42:26.409Z,51.02
2018-05-27T06:43:28.919Z,51.18
2018-05-27T06:44:31.441Z,51.10
2018-05-27T06:45:33.935Z,50.94
2018-05-27T06:46:36.418Z,50.82
2018-05-27T06:47:38.922Z,50.73
2018-05-27T06:48:41.429Z,50.92
2018-05-27T06:49:44.133Z,51.01
2018-05-27T06:50:46.705Z,51.06
2018-05-27T06:51:49.195Z,51.25
2018-05-27T06:52:51.732Z,51.06
2018-05-27T06:53:54.255Z,51.12
2018-05-27T06:54:56.755Z,51.28
2018-05-27T06:55:59.288Z,51.29
2018-05-27T06:57:01.808Z,51.21
2018-05-27T06:58:04.423Z,51.09
2018-05-27T06:59:06.957Z,51.10
2018-05-27T07:00:09.445Z,50.95
2018-05-27T07:01:11.937Z,50.91
2018-05-27T07:02:14.443Z,50.99
2018-05-27T07:03:17.015Z,51.22
2018-05-27T07:04:19.518Z,50.91
2018-05-27T07:05:22.032Z,50.91
2018-05-27T07:06:24.540Z,50.70
2018-05-27T07:07:27.088Z,50.62
2018-05-27T07:08:29.616Z,50.72
2018-05-27T07:09:32.109Z,50.56
2018-05-27T07:10:34.604Z,50.30
2018-05-27T07:11:37.131Z,50.11
2018-05-27T07:12:39.751Z,50.25
2018-05-27T07:13:42.264Z,50.27
2018-05-27T07:14:44.761Z,50.37
2018-05-27T07:15:47.309Z,50.36
2018-05-27T07:16:49.801Z,50.31
2018-05-27T07:17:52.303Z,50.32
2018-05-27T07:18:54.817Z,50.32
2018-05-27T07:19:57.335Z,50.21
2018-05-27T07:20:59.895Z,50.06
2018-05-27T07:22:02.381Z,50.02
2018-05-27T07:23:04.883Z,50.07
2018-05-27T07:24:07.467Z,49.84
2018-05-27T07:25:09.949Z,49.81
2018-05-27T07:26:12.480Z,49.71
2018-05-27T07:27:15.006Z,49.72
2018-05-27T07:28:17.497Z,49.82
2018-05-27T07:29:19.974Z,49.88
2018-05-27T07:30:22.482Z,49.93
2018-05-27T07:31:25.001Z,50.15
2018-05-27T07:32:27.513Z,50.12
2018-05-27T07:33:29.986Z,49.93
2018-05-27T07:34:32.484Z,50.02
2018-05-27T07:35:34.997Z,49.93
2018-05-27T07:36:37.482Z,49.79
2018-05-27T07:37:39.974Z,49.89
2018-05-27T07:38:42.454Z,50.00
2018-05-27T07:39:44.943Z,50.12
2018-05-27T07:40:47.509Z,50.27
2018-05-27T07:41:49.967Z,50.39
2018-05-27T07:42:52.438Z,50.37
2018-05-27T07:43:55.021Z,50.41
2018-05-27T07:44:57.547Z,50.32
2018-05-27T07:46:00.060Z,50.31
2018-05-27T07:47:02.550Z,50.31
2018-05-27T07:48:05.039Z,50.25
2018-05-27T07:49:07.541Z,50.27
2018-05-27T07:50:10.045Z,50.37
2018-05-27T07:51:12.533Z,50.46
2018-05-27T07:52:15.036Z,50.63
2018-05-27T07:53:17.524Z,50.91
2018-05-27T07:54:20.084Z,51.06
2018-05-27T07:55:22.613Z,51.22
2018-05-27T07:56:25.125Z,51.32
2018-05-27T07:57:27.632Z,51.33
2018-05-27T07:58:30.185Z,51.25
2018-05-27T07:59:32.641Z,51.29
2018-05-27T08:00:35.128Z,51.16
2018-05-27T08:01:37.613Z,51.10
2018-05-27T08:02:40.117Z,51.09
2018-05-27T08:03:42.609Z,51.09
2018-05-27T08:04:45.132Z,51.09
2018-05-27T08:05:47.648Z,51.11
2018-05-27T08:06:50.122Z,51.02
2018-05-27T08:07:52.645Z,50.98
2018-05-27T08:08:55.136Z,50.89
2018-05-27T08:09:57.659Z,50.84
2018-05-27T08:11:00.139Z,50.92
2018-05-27T08:12:02.645Z,50.92
2018-05-27T08:13:05.148Z,50.98
2018-05-27T08:14:07.682Z,50.86
2018-05-27T08:15:10.176Z,50.69
2018-05-27T08:16:12.683Z,50.80
2018-05-27T08:17:15.182Z,50.86
2018-05-27T08:18:17.711Z,50.76
2018-05-27T08:19:20.201Z,50.83
2018-05-27T08:20:22.689Z,50.77
2018-05-27T08:21:25.162Z,50.48
2018-05-27T08:22:27.651Z,50.33
2018-05-27T08:23:30.136Z,50.33
2018-05-27T08:24:32.649Z,50.40
2018-05-27T08:25:35.137Z,50.44
2018-05-27T08:26:37.658Z,50.54
2018-05-27T08:27:40.171Z,50.67
2018-05-27T08:28:42.673Z,50.63
2018-05-27T08:29:45.248Z,50.66
2018-05-27T08:30:47.732Z,50.56
2018-05-27T08:31:50.324Z,50.56
2018-05-27T08:32:52.813Z,50.59
2018-05-27T08:33:55.343Z,50.52
2018-05-27T08:34:57.823Z,50.44
2018-05-27T08:36:00.299Z,50.48
2018-05-27T08:37:02.789Z,50.48
2018-05-27T08:38:05.296Z,50.42
2018-05-27T08:39:07.825Z,50.43
2018-05-27T08:40:10.393Z,50.46
2018-05-27T08:41:12.866Z,50.47
2018-05-27T08:42:15.357Z,50.50
2018-05-27T08:43:17.857Z,50.45
2018-05-27T08:44:20.355Z,50.29
2018-05-27T08:45:22.852Z,50.29
2018-05-27T08:46:25.360Z,50.25
2018-05-27T08:47:27.867Z,50.29
2018-05-27T08:48:30.393Z,50.33
2018-05-27T08:49:32.871Z,50.19
2018-05-27T08:50:35.361Z,50.16
2018-05-27T08:51:37.866Z,50.07
2018-05-27T08:52:40.349Z,50.33
2018-05-27T08:53:42.998Z,50.37
2018-05-27T08:54:45.487Z,50.40
2018-05-27T08:55:47.995Z,50.44
2018-05-27T08:56:50.530Z,50.59
2018-05-27T08:57:53.084Z,50.70
2018-05-27T08:58:55.558Z,50.86
2018-05-27T08:59:58.026Z,50.89
2018-05-27T09:01:00.498Z,51.23
2018-05-27T09:02:03.033Z,51.32
2018-05-27T09:03:05.591Z,51.47
2018-05-27T09:04:08.085Z,51.52
2018-05-27T09:05:10.616Z,51.63
2018-05-27T09:06:13.131Z,51.66
2018-05-27T09:07:15.626Z,51.61
2018-05-27T09:08:18.147Z,51.62
2018-05-27T09:09:20.641Z,51.69
2018-05-27T09:10:23.113Z,51.62
2018-05-27T09:11:25.601Z,51.60
2018-05-27T09:12:28.109Z,51.55
2018-05-27T09:13:30.611Z,51.58
2018-05-27T09:14:33.104Z,51.58
2018-05-27T09:15:35.582Z,51.54
2018-05-27T09:16:38.073Z,51.66
2018-05-27T09:17:40.563Z,51.77
2018-05-27T09:18:43.056Z,51.78
2018-05-27T09:19:45.540Z,51.86
2018-05-27T09:20:48.062Z,51.95
2018-05-27T09:21:50.607Z,52.06
2018-05-27T09:22:53.180Z,51.89
2018-05-27T09:23:55.678Z,51.77
2018-05-27T09:24:58.173Z,51.79
2018-05-27T09:26:00.685Z,51.77
2018-05-27T09:27:03.207Z,51.83
2018-05-27T09:28:05.699Z,51.87
2018-05-27T09:29:08.177Z,51.83
2018-05-27T09:30:10.733Z,51.78
2018-05-27T09:31:13.245Z,51.82
2018-05-27T09:32:15.839Z,51.70
2018-05-27T09:33:18.340Z,51.54
2018-05-27T09:34:20.856Z,51.67
2018-05-27T09:35:23.371Z,51.63
2018-05-27T09:36:25.869Z,51.67
2018-05-27T09:37:28.397Z,52.17
2018-05-27T09:38:30.877Z,52.45
2018-05-27T09:39:33.369Z,52.54
2018-05-27T09:40:35.861Z,52.50
2018-05-27T09:41:38.391Z,52.53
2018-05-27T09:42:40.866Z,52.61
2018-05-27T09:43:43.371Z,52.76
2018-05-27T09:44:45.869Z,52.90
2018-05-27T09:45:48.356Z,53.02
2018-05-27T09:46:50.857Z,53.08
2018-05-27T09:47:53.368Z,53.13
2018-05-27T09:48:55.869Z,53.16
2018-05-27T09:49:58.361Z,53.24
2018-05-27T09:51:00.861Z,53.35
2018-05-27T09:52:03.360Z,53.40
2018-05-27T09:53:05.846Z,53.46
2018-05-27T09:54:08.319Z,53.49
2018-05-27T09:55:10.809Z,53.54
2018-05-27T09:56:13.319Z,53.57
2018-05-27T09:57:15.823Z,53.59
2018-05-27T09:58:18.323Z,53.62
2018-05-27T09:59:20.822Z,53.64
2018-05-27T10:00:23.316Z,53.69
2018-05-27T10:01:25.816Z,53.71
2018-05-27T10:02:28.347Z,53.77
2018-05-27T10:03:30.837Z,53.81
2018-05-27T10:04:33.335Z,53.84
2018-05-27T10:05:35.828Z,53.85
2018-05-27T10:06:38.426Z,53.88
2018-05-27T10:07:40.902Z,53.90
2018-05-27T10:08:43.397Z,53.94
2018-05-27T10:09:45.899Z,53.98
2018-05-27T10:10:48.413Z,54.00
2018-05-27T10:11:50.913Z,54.02
2018-05-27T10:12:53.473Z,54.03
2018-05-27T10:13:55.967Z,54.06
2018-05-27T10:14:58.466Z,54.09
2018-05-27T10:16:00.951Z,54.12
2018-05-27T10:17:03.463Z,54.14
2018-05-27T10:18:05.942Z,54.15
2018-05-27T10:19:08.450Z,54.17
2018-05-27T10:20:10.923Z,54.21
2018-05-27T10:21:13.439Z,54.22
2018-05-27T10:22:15.951Z,54.23
2018-05-27T10:23:18.569Z,54.24
2018-05-27T10:24:21.046Z,54.26
2018-05-27T10:25:23.553Z,54.28
2018-05-27T10:26:26.027Z,54.31
2018-05-27T10:27:28.605Z,54.33
2018-05-27T10:28:31.092Z,54.34
2018-05-27T10:29:33.677Z,54.37
2018-05-27T10:30:36.170Z,54.39
2018-05-27T10:31:38.696Z,54.41
2018-05-27T10:32:41.205Z,54.43
2018-05-27T10:33:43.696Z,54.48
2018-05-27T10:34:46.199Z,54.51
2018-05-27T10:35:48.686Z,54.54
2018-05-27T10:36:51.177Z,54.58
2018-05-27T10:37:53.698Z,54.61
2018-05-27T10:38:56.189Z,54.63
2018-05-27T10:39:58.721Z,54.66
2018-05-27T10:41:01.225Z,54.68
2018-05-27T10:42:03.705Z,54.71
2018-05-27T10:43:06.201Z,54.73
2018-05-27T10:44:08.709Z,54.75
2018-05-27T10:45:11.235Z,54.77
2018-05-27T10:46:13.740Z,54.78
2018-05-27T10:47:16.255Z,54.81
2018-05-27T10:48:18.771Z,54.84
2018-05-27T10:49:21.279Z,54.84
2018-05-27T10:50:23.847Z,54.85
2018-05-27T10:51:26.331Z,54.86
2018-05-27T10:52:28.827Z,54.88
2018-05-27T10:53:31.308Z,54.89
2018-05-27T10:54:33.802Z,54.91
2018-05-27T10:55:36.282Z,54.92
2018-05-27T10:56:38.780Z,54.93
2018-05-27T10:57:41.259Z,54.96
2018-05-27T10:58:43.745Z,54.98
2018-05-27T10:59:46.253Z,54.98
2018-05-27T11:00:48.977Z,55.00
2018-05-27T11:01:51.483Z,55.02
2018-05-27T11:02:54.005Z,55.04
2018-05-27T11:03:56.497Z,55.05
2018-05-27T11:04:59.017Z,55.08
2018-05-27T11:06:01.523Z,55.09
2018-05-27T11:07:04.038Z,55.10
2018-05-27T11:08:06.525Z,55.11
2018-05-27T11:09:09.058Z,55.11
2018-05-27T11:10:11.559Z,55.12
2018-05-27T11:11:14.070Z,55.13
2018-05-27T11:12:16.571Z,55.13
2018-05-27T11:13:19.053Z,55.14
2018-05-27T11:14:21.539Z,55.13
2018-05-27T11:15:24.021Z,55.14
2018-05-27T11:16:26.540Z,55.14
2018-05-27T11:17:29.030Z,55.16
2018-05-27T11:18:31.525Z,55.17
2018-05-27T11:19:34.029Z,55.18
2018-05-27T11:20:36.552Z,55.20
2018-05-27T11:21:39.040Z,55.21
2018-05-27T11:22:41.580Z,55.21
2018-05-27T11:23:44.080Z,55.24
2018-05-27T11:24:46.562Z,55.24
2018-05-27T11:25:49.063Z,55.25
2018-05-27T11:26:51.534Z,55.26
2018-05-27T11:27:54.021Z,55.27
2018-05-27T11:28:56.525Z,55.28
2018-05-27T11:29:59.025Z,55.28
2018-05-27T11:31:01.501Z,55.28
2018-05-27T11:32:03.971Z,55.28
2018-05-27T11:33:06.548Z,55.28
2018-05-27T11:34:09.052Z,55.29
2018-05-27T11:35:11.541Z,55.29
2018-05-27T11:36:14.029Z,55.31
2018-05-27T11:37:16.508Z,55.31
2018-05-27T11:38:19.026Z,55.31
2018-05-27T11:39:21.514Z,55.31
2018-05-27T11:40:24.080Z,55.32
2018-05-27T11:41:26.605Z,55.33
2018-05-27T11:42:29.123Z,55.33
2018-05-27T11:43:31.619Z,55.34
2018-05-27T11:44:34.124Z,55.34
2018-05-27T11:45:36.624Z,55.36
2018-05-27T11:46:39.196Z,55.36
2018-05-27T11:47:41.689Z,55.37
2018-05-27T11:48:44.216Z,55.38
2018-05-27T11:49:46.705Z,55.39
2018-05-27T11:50:49.192Z,55.39
2018-05-27T11:51:51.681Z,55.40
2018-05-27T11:52:54.175Z,55.42
2018-05-27T11:53:56.694Z,55.42
2018-05-27T11:54:59.173Z,55.42
2018-05-27T11:56:01.730Z,55.43
2018-05-27T11:57:04.225Z,55.43
2018-05-27T11:58:06.714Z,55.45
2018-05-27T11:59:09.185Z,55.45
2018-05-27T12:00:11.673Z,55.46
2018-05-27T12:01:14.149Z,55.49
2018-05-27T12:02:16.636Z,55.48
2018-05-27T12:03:19.145Z,55.48
2018-05-27T12:04:21.623Z,55.47
2018-05-27T12:05:24.098Z,55.47
2018-05-27T12:06:26.567Z,55.47
2018-05-27T12:07:29.057Z,55.48
2018-05-27T12:08:31.653Z,55.49
2018-05-27T12:09:34.197Z,55.50
2018-05-27T12:10:36.619Z,55.53
2018-05-27T12:11:39.118Z,55.54
2018-05-27T12:12:41.617Z,55.55
2018-05-27T12:13:44.103Z,55.56
2018-05-27T12:14:46.597Z,55.56
2018-05-27T12:15:49.081Z,55.54
2018-05-27T12:16:51.568Z,55.57
2018-05-27T12:17:54.038Z,55.56
2018-05-27T12:18:56.526Z,55.57
2018-05-27T12:19:59.025Z,55.58
2018-05-27T12:21:01.532Z,55.57
2018-05-27T12:22:04.022Z,55.57
2018-05-27T12:23:06.586Z,55.58
2018-05-27T12:24:09.147Z,55.58
2018-05-27T12:25:11.612Z,55.59
2018-05-27T12:26:14.086Z,55.61
2018-05-27T12:27:16.580Z,55.61
2018-05-27T12:28:19.105Z,55.61
2018-05-27T12:29:21.609Z,55.61
2018-05-27T12:30:24.127Z,55.60
2018-05-27T12:31:26.613Z,55.60
2018-05-27T12:32:29.110Z,55.61
2018-05-27T12:33:31.581Z,55.63
2018-05-27T12:34:34.112Z,55.64
2018-05-27T12:35:36.587Z,55.65
2018-05-27T12:36:39.088Z,55.66
2018-05-27T12:37:41.573Z,55.67
2018-05-27T12:38:44.087Z,55.67
2018-05-27T12:39:46.583Z,55.67
2018-05-27T12:40:49.073Z,55.68
2018-05-27T12:41:51.561Z,55.67
2018-05-27T12:42:54.136Z,55.68
2018-05-27T12:43:56.569Z,55.70
2018-05-27T12:44:59.078Z,55.71
2018-05-27T12:46:01.554Z,55.72
2018-05-27T12:47:04.060Z,55.73
2018-05-27T12:48:06.548Z,55.75
2018-05-27T12:49:09.069Z,55.76
2018-05-27T12:50:11.761Z,55.76
2018-05-27T12:51:14.260Z,55.76
2018-05-27T12:52:16.733Z,55.77
2018-05-27T12:53:19.227Z,55.77
2018-05-27T12:54:21.698Z,55.78
2018-05-27T12:55:24.205Z,55.78
2018-05-27T12:56:26.717Z,55.78
2018-05-27T12:57:29.223Z,55.79
2018-05-27T12:58:31.731Z,55.79
2018-05-27T12:59:34.240Z,55.81
2018-05-27T13:00:36.772Z,55.79
2018-05-27T13:01:39.265Z,55.79
2018-05-27T13:02:41.765Z,55.80
2018-05-27T13:03:44.267Z,55.76
2018-05-27T13:04:46.743Z,55.82
2018-05-27T13:05:49.257Z,55.83
2018-05-27T13:06:51.751Z,55.82
2018-05-27T13:07:54.222Z,55.82
2018-05-27T13:08:56.716Z,55.82
2018-05-27T13:09:59.220Z,55.82
2018-05-27T13:11:01.764Z,55.81
2018-05-27T13:12:04.240Z,55.82
2018-05-27T13:13:06.737Z,55.81
2018-05-27T13:14:09.225Z,55.81
2018-05-27T13:15:11.711Z,55.81
2018-05-27T13:16:14.252Z,55.80
2018-05-27T13:17:16.753Z,55.80
2018-05-27T13:18:19.248Z,55.80
2018-05-27T13:19:21.726Z,55.80
2018-05-27T13:20:24.194Z,55.79
2018-05-27T13:21:26.715Z,55.79
2018-05-27T13:22:29.232Z,55.78
2018-05-27T13:23:31.751Z,55.78
2018-05-27T13:24:34.237Z,55.78
2018-05-27T13:25:36.730Z,55.77
2018-05-27T13:26:39.251Z,55.78